createdAt,value
2023-02-28T00:03:07.422Z,502.00
2023-02-28T00:07:07.542Z,507.00
2023-02-28T00:11:07.730Z,508.00
2023-02-28T00:15:07.868Z,508.00
2023-02-28T00:19:08.038Z,510.00
2023-02-28T00:23:08.184Z,507.00
2023-02-28T00:27:08.361Z,505.00
2023-02-28T00:31:08.625Z,500.00
2023-02-28T00:35:08.713Z,505.00
2023-02-28T00:39:08.862Z,501.00
2023-02-28T00:43:09.038Z,504.00
2023-02-28T00:47:09.229Z,505.00
2023-02-28T00:51:09.399Z,504.00
2023-02-28T00:55:09.590Z,501.00
2023-02-28T00:59:09.760Z,503.00
2023-02-28T01:03:09.960Z,507.00
2023-02-28T01:07:10.152Z,508.00
2023-02-28T01:11:10.369Z,506.00
2023-02-28T01:15:10.544Z,506.00
2023-02-28T01:19:10.762Z,503.00
2023-02-28T01:23:10.946Z,503.00
2023-02-28T01:27:11.141Z,507.00
2023-02-28T01:31:11.408Z,506.00
2023-02-28T01:35:11.614Z,502.00
2023-02-28T01:39:11.779Z,504.00
2023-02-28T01:43:12.031Z,507.00
2023-02-28T01:47:12.000Z,510.00
2023-02-28T01:51:11.951Z,508.00
2023-02-28T01:55:11.900Z,505.00
2023-02-28T01:59:11.867Z,509.00
2023-02-28T02:03:11.835Z,506.00
2023-02-28T02:07:11.801Z,503.00
2023-02-28T02:11:11.750Z,503.00
2023-02-28T02:15:11.754Z,508.00
2023-02-28T02:19:11.744Z,505.00
2023-02-28T02:23:11.653Z,501.00
2023-02-28T02:27:11.859Z,508.00
2023-02-28T02:31:11.860Z,500.00
2023-02-28T02:35:11.774Z,508.00
2023-02-28T02:39:11.742Z,507.00
2023-02-28T02:43:11.721Z,507.00
2023-02-28T02:47:11.703Z,510.00
2023-02-28T02:51:11.652Z,503.00
2023-02-28T02:55:11.578Z,502.00
2023-02-28T02:59:11.575Z,506.00
2023-02-28T03:03:11.533Z,502.00
2023-02-28T03:07:11.584Z,500.00
2023-02-28T03:11:11.547Z,505.00
2023-02-28T03:15:11.482Z,504.00
2023-02-28T03:19:11.484Z,507.00
2023-02-28T03:23:11.441Z,509.00
2023-02-28T03:27:11.402Z,501.00
2023-02-28T03:31:11.376Z,501.00
2023-02-28T03:35:11.337Z,506.00
2023-02-28T03:39:11.272Z,507.00
2023-02-28T03:43:11.259Z,506.00
2023-02-28T03:47:11.410Z,507.00
2023-02-28T03:51:11.353Z,502.00
2023-02-28T03:55:11.362Z,506.00
2023-02-28T03:59:11.309Z,509.00
2023-02-28T04:03:12.607Z,505.00
2023-02-28T04:07:11.241Z,500.00
2023-02-28T04:11:11.183Z,501.00
2023-02-28T04:15:11.135Z,506.00
2023-02-28T04:19:11.204Z,505.00
2023-02-28T04:23:11.152Z,505.00
2023-02-28T04:27:11.143Z,505.00
2023-02-28T04:31:11.138Z,506.00
2023-02-28T04:35:12.522Z,502.00
2023-02-28T04:39:11.049Z,507.00
2023-02-28T04:43:10.998Z,507.00
2023-02-28T04:47:10.978Z,506.00
2023-02-28T04:51:11.034Z,501.00
2023-02-28T04:55:11.019Z,503.00
2023-02-28T04:59:10.984Z,509.00
2023-02-28T05:03:10.969Z,505.00
2023-02-28T05:07:10.923Z,508.00
2023-02-28T05:11:10.869Z,506.00
2023-02-28T05:15:10.823Z,501.00
2023-02-28T05:19:10.813Z,502.00
2023-02-28T05:23:10.784Z,510.00
2023-02-28T05:27:10.744Z,504.00
2023-02-28T05:31:10.897Z,503.00
2023-02-28T05:35:10.859Z,509.00
2023-02-28T05:39:10.812Z,504.00
2023-02-28T05:43:10.796Z,507.00
2023-02-28T05:47:10.754Z,505.00
2023-02-28T05:51:10.703Z,504.00
2023-02-28T05:55:10.706Z,508.00
2023-02-28T05:59:10.670Z,506.00
2023-02-28T06:03:10.685Z,500.00
2023-02-28T06:07:10.597Z,504.00
2023-02-28T06:11:10.696Z,508.00
2023-02-28T06:15:10.661Z,507.00
2023-02-28T06:19:11.170Z,503.00
2023-02-28T06:23:10.607Z,504.00
2023-02-28T06:27:10.547Z,503.00
2023-02-28T06:31:10.552Z,500.00
2023-02-28T06:35:10.581Z,508.00
2023-02-28T06:39:10.673Z,505.00
2023-02-28T06:43:10.444Z,503.00
2023-02-28T06:47:10.691Z,520.00
2023-02-28T06:51:10.550Z,542.00
2023-02-28T06:55:11.177Z,564.00
2023-02-28T06:59:11.174Z,577.00
2023-02-28T07:03:10.791Z,606.00
2023-02-28T07:07:10.757Z,633.00
2023-02-28T07:11:10.810Z,660.00
2023-02-28T07:15:10.846Z,691.00
2023-02-28T07:19:10.724Z,744.00
2023-02-28T07:23:10.720Z,776.00
2023-02-28T07:27:10.664Z,814.00
2023-02-28T07:31:10.701Z,840.00
2023-02-28T07:35:10.608Z,879.00
2023-02-28T07:39:10.576Z,883.00
2023-02-28T07:43:10.530Z,890.00
2023-02-28T07:47:10.681Z,915.00
2023-02-28T07:51:10.680Z,938.00
2023-02-28T07:55:10.710Z,1018.00
2023-02-28T07:59:10.402Z,1070.00
2023-02-28T08:03:10.353Z,1070.00
2023-02-28T08:07:10.697Z,1068.00
2023-02-28T08:11:10.358Z,1054.00
2023-02-28T08:15:10.374Z,1074.00
2023-02-28T08:19:10.361Z,1061.00
2023-02-28T08:23:10.393Z,1067.00
2023-02-28T08:27:10.348Z,1057.00
2023-02-28T08:31:10.387Z,1059.00
2023-02-28T08:35:10.451Z,1028.00
2023-02-28T08:39:10.472Z,1011.00
2023-02-28T08:43:10.705Z,1026.00
2023-02-28T08:47:10.697Z,1016.00
2023-02-28T08:51:10.515Z,1012.00
2023-02-28T08:55:10.448Z,1004.00
2023-02-28T08:59:10.415Z,1026.00
2023-02-28T09:03:10.733Z,1007.00
2023-02-28T09:07:10.347Z,998.00
2023-02-28T09:11:10.277Z,1012.00
2023-02-28T09:15:10.261Z,1033.00
2023-02-28T09:19:10.223Z,977.00
2023-02-28T09:23:10.212Z,934.00
2023-02-28T09:27:10.633Z,970.00
2023-02-28T09:31:10.187Z,1001.00
2023-02-28T09:35:10.113Z,1006.00
2023-02-28T09:39:10.242Z,1050.00
2023-02-28T09:43:10.066Z,1153.00
2023-02-28T09:47:10.248Z,1068.00
2023-02-28T09:51:10.224Z,1023.00
2023-02-28T09:55:10.239Z,804.00
2023-02-28T09:59:09.884Z,665.00
2023-02-28T10:03:10.233Z,795.00
2023-02-28T10:07:09.835Z,811.00
2023-02-28T10:11:09.884Z,795.00
2023-02-28T10:15:09.918Z,764.00
2023-02-28T10:19:10.282Z,804.00
2023-02-28T10:23:09.993Z,817.00
2023-02-28T10:27:10.246Z,787.00
2023-02-28T10:31:10.036Z,802.00
2023-02-28T10:35:10.264Z,789.00
2023-02-28T10:39:10.280Z,785.00
2023-02-28T10:43:10.290Z,824.00
2023-02-28T10:47:09.984Z,810.00
2023-02-28T10:51:10.303Z,714.00
2023-02-28T10:55:10.294Z,730.00
2023-02-28T10:59:10.030Z,727.00
2023-02-28T11:03:10.361Z,712.00
2023-02-28T11:07:10.836Z,684.00
2023-02-28T11:11:10.302Z,687.00
2023-02-28T11:15:10.308Z,670.00
2023-02-28T11:19:10.296Z,665.00
2023-02-28T11:23:10.402Z,653.00
2023-02-28T11:27:10.487Z,653.00
2023-02-28T11:31:10.831Z,638.00
2023-02-28T11:35:10.676Z,644.00
2023-02-28T11:39:11.283Z,522.00
2023-02-28T11:43:11.271Z,1391.00
2023-02-28T11:47:10.788Z,2244.00
2023-02-28T11:51:10.733Z,2138.00
2023-02-28T11:55:10.671Z,2284.00
2023-02-28T11:59:10.657Z,2229.00
2023-02-28T12:03:10.696Z,2242.00
2023-02-28T12:07:10.824Z,2252.00
2023-02-28T12:11:10.557Z,2285.00
2023-02-28T12:15:10.538Z,1949.00
2023-02-28T12:19:10.826Z,1930.00
2023-02-28T12:23:17.834Z,1962.00
2023-02-28T12:27:10.830Z,1989.00
2023-02-28T12:31:10.380Z,1942.00
2023-02-28T12:35:10.824Z,1845.00
2023-02-28T12:39:11.237Z,1818.00
2023-02-28T12:43:10.304Z,1234.00
2023-02-28T12:47:10.248Z,1117.00
2023-02-28T12:51:10.810Z,903.00
2023-02-28T12:55:10.586Z,796.00
2023-02-28T12:59:10.848Z,656.00
2023-02-28T13:03:10.989Z,577.00
2023-02-28T13:07:11.326Z,651.00
2023-02-28T13:11:20.929Z,871.00
2023-02-28T13:15:12.238Z,811.00
2023-02-28T13:19:11.189Z,791.00
2023-02-28T13:23:11.329Z,788.00
2023-02-28T13:27:11.321Z,744.00
2023-02-28T13:31:11.175Z,697.00
2023-02-28T13:35:11.020Z,1055.00
2023-02-28T13:39:11.014Z,783.00
2023-02-28T13:43:10.997Z,597.00
2023-02-28T13:47:10.951Z,1292.00
2023-02-28T13:51:11.054Z,1151.00
2023-02-28T13:55:11.048Z,879.00
2023-02-28T13:59:11.029Z,831.00
2023-02-28T14:03:11.120Z,767.00
2023-02-28T14:07:11.056Z,510.00
2023-02-28T14:11:11.193Z,496.00
2023-02-28T14:15:11.338Z,503.00
2023-02-28T14:19:11.493Z,500.00
2023-02-28T14:23:11.867Z,514.00
2023-02-28T14:27:11.526Z,522.00
2023-02-28T14:31:11.804Z,551.00
2023-02-28T14:35:11.659Z,597.00
2023-02-28T14:39:11.610Z,635.00
2023-02-28T14:43:11.565Z,656.00
2023-02-28T14:47:11.552Z,648.00
2023-02-28T14:51:11.501Z,672.00
2023-02-28T14:55:11.476Z,709.00
2023-02-28T14:59:11.447Z,749.00
2023-02-28T15:03:11.429Z,761.00
2023-02-28T15:07:11.394Z,783.00
2023-02-28T15:11:11.395Z,674.00
2023-02-28T15:15:11.421Z,673.00
2023-02-28T15:19:11.267Z,660.00
2023-02-28T15:23:11.231Z,657.00
2023-02-28T15:27:11.206Z,640.00
2023-02-28T15:31:11.202Z,647.00
2023-02-28T15:35:11.089Z,643.00
2023-02-28T15:39:16.118Z,630.00
2023-02-28T15:43:12.049Z,630.00
2023-02-28T15:47:11.010Z,625.00
2023-02-28T15:51:10.987Z,628.00
2023-02-28T15:55:10.941Z,622.00
2023-02-28T15:59:11.020Z,644.00
2023-02-28T16:03:11.088Z,647.00
2023-02-28T16:07:11.111Z,678.00
2023-02-28T16:11:11.202Z,694.00
2023-02-28T16:15:11.401Z,662.00
2023-02-28T16:19:11.472Z,623.00
2023-02-28T16:23:11.565Z,598.00
2023-02-28T16:27:11.662Z,595.00
2023-02-28T16:31:11.894Z,575.00
2023-02-28T16:35:12.001Z,567.00
2023-02-28T16:39:11.927Z,550.00
2023-02-28T16:43:11.911Z,551.00
2023-02-28T16:47:11.862Z,545.00
2023-02-28T16:51:11.845Z,542.00
2023-02-28T16:55:11.785Z,531.00
2023-02-28T16:59:11.776Z,525.00
2023-02-28T17:03:12.903Z,536.00
2023-02-28T17:07:11.686Z,514.00
2023-02-28T17:11:11.655Z,515.00
2023-02-28T17:15:11.656Z,514.00
2023-02-28T17:19:11.557Z,517.00
2023-02-28T17:23:11.508Z,513.00
2023-02-28T17:27:11.490Z,521.00
2023-02-28T17:31:11.482Z,508.00
2023-02-28T17:35:11.414Z,510.00
2023-02-28T17:39:11.393Z,511.00
2023-02-28T17:43:11.367Z,512.00
2023-02-28T17:47:11.346Z,500.00
2023-02-28T17:51:11.274Z,513.00
2023-02-28T17:55:11.246Z,513.00
2023-02-28T17:59:11.230Z,525.00
2023-02-28T18:03:11.230Z,519.00
2023-02-28T18:07:11.131Z,517.00
2023-02-28T18:11:11.081Z,519.00
2023-02-28T18:15:11.102Z,511.00
2023-02-28T18:19:11.065Z,517.00
2023-02-28T18:23:10.979Z,501.00
2023-02-28T18:27:11.017Z,503.00
2023-02-28T18:31:10.946Z,510.00
2023-02-28T18:35:10.872Z,508.00
2023-02-28T18:39:11.039Z,508.00
2023-02-28T18:43:11.217Z,505.00
2023-02-28T18:47:11.432Z,509.00
2023-02-28T18:51:11.745Z,520.00
2023-02-28T18:55:11.844Z,512.00
2023-02-28T18:59:12.070Z,507.00
2023-02-28T19:03:12.017Z,510.00
2023-02-28T19:07:11.992Z,513.00
2023-02-28T19:11:11.975Z,511.00
2023-02-28T19:15:11.932Z,509.00
2023-02-28T19:19:11.903Z,516.00
2023-02-28T19:23:11.847Z,512.00
2023-02-28T19:27:11.814Z,500.00
2023-02-28T19:31:11.782Z,532.00
2023-02-28T19:35:11.762Z,521.00
2023-02-28T19:39:11.726Z,524.00
2023-02-28T19:43:11.690Z,522.00
2023-02-28T19:47:11.655Z,523.00
2023-02-28T19:51:11.646Z,521.00
2023-02-28T19:55:11.588Z,519.00
2023-02-28T19:59:21.077Z,512.00
2023-02-28T20:03:12.503Z,512.00
2023-02-28T20:07:11.460Z,510.00
2023-02-28T20:11:11.431Z,507.00
2023-02-28T20:15:11.544Z,507.00
2023-02-28T20:19:11.718Z,504.00
2023-02-28T20:23:11.936Z,509.00
2023-02-28T20:27:12.133Z,514.00
2023-02-28T20:31:12.375Z,509.00
2023-02-28T20:35:12.330Z,515.00
2023-02-28T20:39:12.266Z,511.00
2023-02-28T20:43:12.277Z,508.00
2023-02-28T20:47:12.217Z,507.00
2023-02-28T20:51:12.175Z,506.00
2023-02-28T20:55:12.151Z,517.00
2023-02-28T20:59:12.121Z,520.00
2023-02-28T21:03:12.054Z,534.00
2023-02-28T21:07:12.034Z,530.00
2023-02-28T21:11:12.018Z,512.00
2023-02-28T21:15:11.937Z,509.00
2023-02-28T21:19:11.932Z,518.00
2023-02-28T21:23:11.893Z,511.00
2023-02-28T21:27:11.865Z,526.00
2023-02-28T21:31:11.912Z,572.00
2023-02-28T21:35:11.776Z,571.00
2023-02-28T21:39:11.758Z,596.00
2023-02-28T21:43:11.737Z,585.00
2023-02-28T21:47:11.708Z,588.00
2023-02-28T21:51:11.648Z,582.00
2023-02-28T21:55:11.693Z,574.00
2023-02-28T21:59:11.858Z,548.00
2023-02-28T22:03:12.008Z,544.00
2023-02-28T22:07:12.112Z,560.00
2023-02-28T22:11:12.237Z,576.00
2023-02-28T22:15:12.422Z,580.00
2023-02-28T22:19:12.534Z,590.00
2023-02-28T22:23:12.727Z,606.00
2023-02-28T22:27:12.881Z,602.00
2023-02-28T22:31:13.079Z,591.00
2023-02-28T22:35:13.215Z,584.00
2023-02-28T22:39:13.384Z,577.00
2023-02-28T22:43:13.575Z,581.00
2023-02-28T22:47:13.752Z,578.00
2023-02-28T22:51:13.939Z,570.00
2023-02-28T22:55:14.159Z,556.00
2023-02-28T22:59:14.372Z,565.00
2023-02-28T23:03:14.312Z,551.00
2023-02-28T23:07:14.296Z,533.00
2023-02-28T23:11:14.221Z,528.00
2023-02-28T23:15:14.225Z,520.00
2023-02-28T23:19:14.175Z,536.00
2023-02-28T23:23:14.164Z,545.00
2023-02-28T23:27:14.077Z,561.00
2023-02-28T23:31:14.064Z,566.00
2023-02-28T23:35:14.032Z,574.00
2023-02-28T23:39:14.042Z,580.00
2023-02-28T23:43:14.165Z,565.00
2023-02-28T23:47:14.101Z,549.00
2023-02-28T23:51:14.071Z,544.00
2023-02-28T23:55:14.064Z,540.00
2023-02-28T23:59:14.027Z,555.00
